Time;durP1;ratioP1;P1;durP2;ratioP2;P2;SDS_P1;SDS_P2;PMS_P1;PMS_P2;Temp;Humidity;BMP_temperature;BMP_pressure;BME280_temperature;BME280_humidity;BME280_pressure;Samples;Min_cycle;Max_cycle;Signal;HPM_P1;HPM_P2
2022/03/01 00:01:09;;;;;;;3.55;2.22;;;;;;;-3.73;100.00;100512.16;5131976;28;20137;-60
2022/03/01 00:03:35;;;;;;;4.90;2.25;;;;;;;-3.71;100.00;100518.13;5132086;28;20557;-60
2022/03/01 00:06:01;;;;;;;4.43;2.58;;;;;;;-3.75;100.00;100525.00;5131956;27;20047;-60
2022/03/01 00:08:28;;;;;;;4.00;2.38;;;;;;;-3.78;100.00;100528.97;5131858;28;20134;-60
2022/03/01 00:10:54;;;;;;;3.97;2.60;;;;;;;-3.75;100.00;100530.38;5131914;28;20525;-60
2022/03/01 00:13:21;;;;;;;3.75;2.00;;;;;;;-3.81;100.00;100535.59;5131983;27;20109;-59
2022/03/01 00:15:47;;;;;;;2.22;1.85;;;;;;;-3.78;100.00;100548.53;5132231;27;20115;-60
2022/03/01 00:18:14;;;;;;;5.07;2.55;;;;;;;-3.79;100.00;100557.63;5131728;28;20168;-60
2022/03/01 00:20:40;;;;;;;5.80;2.50;;;;;;;-3.81;100.00;100564.28;5132103;27;20051;-60
2022/03/01 00:23:06;;;;;;;3.80;1.90;;;;;;;-3.81;100.00;100578.47;5131681;28;20051;-60
2022/03/01 00:25:33;;;;;;;5.00;2.45;;;;;;;-3.84;100.00;100587.00;5132003;27;20098;-59
2022/03/01 00:27:59;;;;;;;4.65;2.65;;;;;;;-3.82;100.00;100592.94;5131514;28;20194;-60
2022/03/01 00:30:26;;;;;;;6.60;2.72;;;;;;;-3.81;100.00;100601.78;5131567;28;20043;-60
2022/03/01 00:32:52;;;;;;;4.07;2.42;;;;;;;-3.85;100.00;100617.53;5131648;28;20050;-60
2022/03/01 00:35:18;;;;;;;3.97;2.65;;;;;;;-3.84;100.00;100616.47;5131830;28;20553;-60
2022/03/01 00:37:45;;;;;;;3.63;2.40;;;;;;;-3.84;100.00;100615.66;5131928;27;20654;-60
2022/03/01 00:40:12;;;;;;;3.67;2.40;;;;;;;-3.89;100.00;100619.03;5131788;28;20523;-60
2022/03/01 00:42:39;;;;;;;7.88;2.70;;;;;;;-3.88;100.00;100644.78;5131683;27;20380;-60
2022/03/01 00:45:06;;;;;;;3.85;2.40;;;;;;;-3.92;100.00;100673.09;5131485;27;20146;-60
2022/03/01 00:47:33;;;;;;;5.00;2.53;;;;;;;-3.94;100.00;100696.59;5132000;28;20047;-60
2022/03/01 00:49:59;;;;;;;6.55;2.63;;;;;;;-3.91;100.00;100722.13;5131312;28;20099;-60
2022/03/01 00:52:25;;;;;;;6.28;2.80;;;;;;;-3.99;100.00;100733.19;5131818;28;20120;-60
2022/03/01 00:54:51;;;;;;;5.43;2.92;;;;;;;-4.05;100.00;100743.78;5130628;28;20100;-60
2022/03/01 00:57:18;;;;;;;5.88;3.78;;;;;;;-4.03;100.00;100760.44;5131249;27;20043;-60
2022/03/01 00:59:44;;;;;;;6.45;2.72;;;;;;;-4.04;100.00;100764.16;5131212;27;20059;-60
2022/03/01 01:02:10;;;;;;;8.98;2.70;;;;;;;-4.04;100.00;100774.88;5131170;28;20101;-60
2022/03/01 01:04:37;;;;;;;6.45;3.30;;;;;;;-4.09;100.00;100790.81;5130919;27;20054;-60
2022/03/01 01:07:04;;;;;;;7.30;3.13;;;;;;;-4.12;100.00;100807.34;5130541;27;20146;-60
2022/03/01 01:09:30;;;;;;;5.20;3.17;;;;;;;-4.10;100.00;100813.31;5131128;28;20054;-60
2022/03/01 01:11:57;;;;;;;7.35;2.90;;;;;;;-4.14;100.00;100822.81;5130866;28;20047;-60
2022/03/01 01:14:24;;;;;;;6.80;3.20;;;;;;;-4.14;100.00;100833.53;5131309;28;20066;-60
2022/03/01 01:16:51;;;;;;;6.72;3.65;;;;;;;-4.17;100.00;100835.84;5130882;27;20047;-60
2022/03/01 01:19:17;;;;;;;6.55;2.97;;;;;;;-4.21;100.00;100840.84;5131170;27;20051;-60
2022/03/01 01:24:29;;;;;;;8.27;3.53;;;;;;;-4.26;100.00;100864.81;5130883;28;20050;-60
2022/03/01 01:26:55;;;;;;;6.88;3.75;;;;;;;-4.33;100.00;100872.09;5130903;27;20050;-60
2022/03/01 01:29:21;;;;;;;5.90;2.85;;;;;;;-4.38;100.00;100877.31;5130788;28;20051;-60
2022/03/01 01:31:48;;;;;;;6.25;3.50;;;;;;;-4.41;100.00;100889.28;5130874;27;20462;-59
2022/03/01 01:34:14;;;;;;;8.23;3.33;;;;;;;-4.45;100.00;100898.81;5130444;28;20065;-60
2022/03/01 01:36:40;;;;;;;10.63;3.70;;;;;;;-4.43;100.00;100903.91;5130609;27;20051;-60
2022/03/01 01:39:07;;;;;;;6.65;3.42;;;;;;;-4.44;100.00;100913.81;5130685;28;20105;-60
2022/03/01 01:41:33;;;;;;;5.88;3.00;;;;;;;-4.40;100.00;100925.72;5130863;28;20051;-60
2022/03/01 01:44:04;;;;;;;6.25;3.33;;;;;;;-4.46;100.00;100928.47;5130412;27;20054;-60
2022/03/01 01:46:31;;;;;;;4.75;2.70;;;;;;;-4.45;100.00;100938.16;5130930;27;20051;-60
2022/03/01 01:48:57;;;;;;;4.72;2.92;;;;;;;-4.42;100.00;100948.41;5130359;27;20055;-60
2022/03/01 01:51:24;;;;;;;6.30;3.00;;;;;;;-4.44;100.00;100955.84;5130587;28;20073;-59
2022/03/01 01:53:51;;;;;;;8.05;3.80;;;;;;;-4.46;100.00;100953.41;5129919;27;20062;-60
2022/03/01 01:56:18;;;;;;;6.65;3.25;;;;;;;-4.49;100.00;100961.88;5130411;27;20566;-60
2022/03/01 01:58:44;;;;;;;5.10;3.40;;;;;;;-4.47;100.00;100977.69;5130286;27;20059;-60
2022/03/01 02:01:11;;;;;;;8.45;4.38;;;;;;;-4.51;100.00;100978.13;5130320;28;20142;-60
2022/03/01 02:03:37;;;;;;;8.85;3.80;;;;;;;-4.55;100.00;100986.84;5130244;27;20606;-59
2022/03/01 02:06:03;;;;;;;8.98;3.65;;;;;;;-4.55;100.00;100993.00;5130160;28;20089;-60
2022/03/01 02:08:30;;;;;;;8.70;3.72;;;;;;;-4.53;100.00;101001.66;5130748;28;20133;-60
2022/03/01 02:10:57;;;;;;;5.90;3.70;;;;;;;-4.56;100.00;101018.13;5130064;28;20134;-60
2022/03/01 02:13:24;;;;;;;6.78;2.80;;;;;;;-4.56;100.00;101042.22;5130606;28;20055;-60
2022/03/01 02:15:50;;;;;;;8.20;3.63;;;;;;;-4.62;100.00;101040.44;5130081;28;20510;-60
2022/03/01 02:18:18;;;;;;;8.52;3.53;;;;;;;-4.62;100.00;101047.63;5131019;27;20517;-60
2022/03/01 02:20:45;;;;;;;6.28;3.17;;;;;;;-4.61;100.00;101042.06;5133569;27;20102;-60
2022/03/01 02:23:11;;;;;;;8.68;3.53;;;;;;;-4.67;100.00;101047.47;5133700;28;20103;-59
2022/03/01 02:25:38;;;;;;;11.73;4.32;;;;;;;-4.75;100.00;101052.06;5133802;28;20053;-60
2022/03/01 02:28:05;;;;;;;7.13;3.88;;;;;;;-4.77;100.00;101059.47;5133771;27;20054;-60
2022/03/01 02:30:31;;;;;;;8.02;3.70;;;;;;;-4.81;100.00;101073.50;5133560;27;20104;-60
2022/03/01 02:32:58;;;;;;;8.50;4.45;;;;;;;-4.78;100.00;101089.94;5133511;27;20047;-60
2022/03/01 02:35:24;;;;;;;8.90;4.07;;;;;;;-4.79;100.00;101098.19;5133537;27;20057;-60
2022/03/01 02:37:52;;;;;;;8.23;3.90;;;;;;;-4.83;100.00;101102.31;5133341;28;20043;-59
2022/03/01 02:40:19;;;;;;;7.70;3.83;;;;;;;-4.86;100.00;101105.44;5133686;27;20069;-60
2022/03/01 02:42:47;;;;;;;13.88;4.82;;;;;;;-4.95;100.00;101104.88;5133367;28;20054;-59
2022/03/01 02:45:17;;;;;;;8.35;3.92;;;;;;;-4.93;100.00;101110.84;5133488;27;20099;-59
2022/03/01 02:47:44;;;;;;;6.32;4.03;;;;;;;-4.89;100.00;101124.59;5133320;27;20043;-60
2022/03/01 02:50:12;;;;;;;12.25;4.28;;;;;;;-4.93;100.00;101118.03;5133166;28;20062;-59
2022/03/01 02:52:39;;;;;;;13.63;4.70;;;;;;;-4.90;100.00;101131.78;5133102;27;20134;-59
2022/03/01 02:55:08;;;;;;;7.80;4.20;;;;;;;-4.94;100.00;101137.78;5132810;28;20062;-60
2022/03/01 02:57:34;;;;;;;8.52;4.32;;;;;;;-4.95;100.00;101138.84;5133297;28;20425;-59
2022/03/01 03:00:01;;;;;;;12.40;4.15;;;;;;;-4.98;100.00;101137.41;5133245;28;20426;-60
2022/03/01 03:02:28;;;;;;;7.85;3.58;;;;;;;-4.99;100.00;101138.44;5133087;27;20047;-60
2022/03/01 03:04:54;;;;;;;7.28;3.80;;;;;;;-5.06;100.00;101141.16;5132950;28;20509;-60
2022/03/01 03:07:20;;;;;;;8.48;4.45;;;;;;;-5.05;100.00;101140.09;5133293;27;20504;-60
2022/03/01 03:09:47;;;;;;;6.72;4.22;;;;;;;-5.03;100.00;101151.44;5132906;28;20085;-60
2022/03/01 03:12:14;;;;;;;10.65;4.13;;;;;;;-5.04;100.00;101162.31;5133102;27;20077;-59
2022/03/01 03:14:40;;;;;;;7.05;3.58;;;;;;;-5.15;100.00;101147.78;5132808;28;20497;-59
2022/03/01 03:17:06;;;;;;;7.55;4.22;;;;;;;-5.16;100.00;101159.50;5132749;27;20528;-60
2022/03/01 03:19:33;;;;;;;11.27;4.22;;;;;;;-5.12;100.00;101151.88;5132930;27;20576;-59
2022/03/01 03:21:59;;;;;;;10.38;4.63;;;;;;;-5.15;100.00;101169.16;5132430;27;20047;-59
2022/03/01 03:24:26;;;;;;;10.70;4.45;;;;;;;-5.19;100.00;101159.13;5132825;27;20425;-60
2022/03/01 03:26:52;;;;;;;8.63;3.97;;;;;;;-5.24;100.00;101165.91;5132693;28;20078;-60
2022/03/01 03:29:19;;;;;;;9.95;3.88;;;;;;;-5.23;100.00;101169.41;5132434;27;20138;-60
2022/03/01 03:31:45;;;;;;;10.98;4.47;;;;;;;-5.19;100.00;101175.16;5132620;28;20047;-60
2022/03/01 03:34:12;;;;;;;8.57;4.07;;;;;;;-5.22;100.00;101173.72;5132836;27;20447;-59
2022/03/01 03:36:40;;;;;;;8.35;4.03;;;;;;;-5.22;100.00;101174.53;5132479;28;20477;-59
2022/03/01 03:39:09;;;;;;;10.13;4.57;;;;;;;-5.17;100.00;101175.75;5132768;27;20103;-60
2022/03/01 03:41:36;;;;;;;7.75;4.22;;;;;;;-5.18;100.00;101182.13;5132579;27;20047;-60
2022/03/01 03:44:03;;;;;;;10.40;4.55;;;;;;;-5.21;100.00;101184.19;5132223;28;20047;-59
2022/03/01 03:46:30;;;;;;;11.25;4.95;;;;;;;-5.25;100.00;101180.31;5132662;28;20078;-60
2022/03/01 03:48:56;;;;;;;8.55;4.47;;;;;;;-5.27;100.00;101178.88;5132172;28;20051;-59
2022/03/01 03:51:23;;;;;;;7.10;4.00;;;;;;;-5.25;100.00;101182.16;5132524;27;20054;-59
2022/03/01 03:53:50;;;;;;;9.05;4.38;;;;;;;-5.26;100.00;101181.34;5131717;28;20502;-60
2022/03/01 03:56:16;;;;;;;11.20;4.95;;;;;;;-5.19;100.00;101185.84;5132305;27;20134;-60
2022/03/01 03:58:42;;;;;;;10.57;3.83;;;;;;;-5.19;100.00;101192.03;5132061;28;20429;-60
2022/03/01 04:01:09;;;;;;;7.90;4.20;;;;;;;-5.19;100.00;101191.19;5132498;28;20047;-60
2022/03/01 04:03:36;;;;;;;11.05;4.60;;;;;;;-5.23;100.00;101188.94;5131816;28;20051;-60
2022/03/01 04:06:03;;;;;;;12.57;4.22;;;;;;;-5.24;100.00;101181.13;5132463;28;20059;-59
2022/03/01 04:08:29;;;;;;;7.05;4.05;;;;;;;-5.25;100.00;101179.50;5131966;27;20104;-59
2022/03/01 04:10:56;;;;;;;8.38;4.20;;;;;;;-5.28;100.00;101188.75;5131833;28;20058;-60
2022/03/01 04:13:23;;;;;;;9.77;4.70;;;;;;;-5.27;100.00;101193.06;5131975;27;20071;-59
2022/03/01 04:15:49;;;;;;;8.80;4.10;;;;;;;-5.27;100.00;101182.34;5131974;28;20054;-59
2022/03/01 04:18:15;;;;;;;10.23;4.13;;;;;;;-5.30;100.00;101174.78;5132154;28;20399;-60
2022/03/01 04:20:42;;;;;;;8.05;4.18;;;;;;;-5.30;100.00;101172.13;5131869;28;20047;-60
2022/03/01 04:23:09;;;;;;;13.07;4.43;;;;;;;-5.26;100.00;101181.34;5132270;27;20569;-60
2022/03/01 04:25:35;;;;;;;8.15;4.03;;;;;;;-5.32;100.00;101178.69;5131841;28;20051;-60
2022/03/01 04:28:01;;;;;;;8.23;3.83;;;;;;;-5.34;100.00;101170.88;5131889;28;20516;-60
2022/03/01 04:30:28;;;;;;;11.77;4.03;;;;;;;-5.37;100.00;101159.78;5131364;28;20051;-60
2022/03/01 04:32:54;;;;;;;10.10;4.13;;;;;;;-5.41;100.00;101159.38;5131540;28;20051;-60
2022/03/01 04:35:21;;;;;;;10.35;6.10;;;;;;;-5.37;100.00;101165.13;5131373;27;20062;-60
2022/03/01 04:37:48;;;;;;;11.10;4.43;;;;;;;-5.44;100.00;101167.81;5131366;28;20043;-60
2022/03/01 04:40:16;;;;;;;10.52;4.28;;;;;;;-5.44;100.00;101155.28;5131030;27;20047;-60
2022/03/01 04:42:45;;;;;;;9.60;4.75;;;;;;;-5.45;100.00;101167.00;5130933;27;20050;-60
2022/03/01 04:45:12;;;;;;;10.98;4.25;;;;;;;-5.48;100.00;101163.94;5131748;27;20166;-60
2022/03/01 04:47:39;;;;;;;9.50;4.30;;;;;;;-5.48;100.00;101163.94;5131883;28;20047;-60
2022/03/01 04:50:07;;;;;;;7.55;4.10;;;;;;;-5.50;100.00;101158.81;5131761;28;20471;-60
2022/03/01 04:52:33;;;;;;;8.77;4.30;;;;;;;-5.46;100.00;101162.69;5131102;27;20464;-60
2022/03/01 04:55:00;;;;;;;12.35;4.82;;;;;;;-5.45;100.00;101174.19;5130741;27;20061;-60
2022/03/01 04:57:26;;;;;;;8.02;4.70;;;;;;;-5.45;100.00;101179.56;5131290;28;20450;-61
2022/03/01 04:59:53;;;;;;;6.38;3.80;;;;;;;-5.41;100.00;101186.09;5131459;28;20184;-60
2022/03/01 05:02:19;;;;;;;12.38;5.43;;;;;;;-5.33;100.00;101182.38;5130933;28;20078;-60
2022/03/01 05:04:45;;;;;;;11.25;5.07;;;;;;;-5.26;100.00;101193.91;5130385;27;20082;-60
2022/03/01 05:07:12;;;;;;;12.55;5.18;;;;;;;-5.13;100.00;101201.03;5130728;28;20051;-60
2022/03/01 05:09:39;;;;;;;8.75;4.47;;;;;;;-5.11;100.00;101196.31;5126575;28;20051;-60
2022/03/01 05:12:06;;;;;;;10.35;4.25;;;;;;;-5.08;100.00;101187.84;5110042;28;20570;-60
2022/03/01 05:14:32;;;;;;;11.27;4.70;;;;;;;-5.11;100.00;101174.91;5110633;28;20051;-59
2022/03/01 05:16:59;;;;;;;8.60;4.30;;;;;;;-5.04;100.00;101178.38;5115779;28;20054;-59
2022/03/01 05:19:25;;;;;;;13.30;4.78;;;;;;;-4.91;100.00;101191.69;5109992;28;20565;-60
2022/03/01 05:21:51;;;;;;;9.75;5.15;;;;;;;-4.89;100.00;101175.44;5110105;28;20047;-61
2022/03/01 05:24:17;;;;;;;9.32;4.03;;;;;;;-4.81;100.00;101175.19;5117068;28;20510;-61
2022/03/01 05:26:44;;;;;;;22.20;4.68;;;;;;;-4.75;100.00;101174.31;5130065;28;20057;-60
2022/03/01 05:29:11;;;;;;;8.50;4.45;;;;;;;-4.72;100.00;101152.50;5130306;28;20130;-60
2022/03/01 05:31:38;;;;;;;7.22;4.32;;;;;;;-4.66;100.00;101129.41;5130258;27;20043;-60
2022/03/01 05:34:04;;;;;;;9.85;4.28;;;;;;;-4.72;100.00;101117.69;5125826;27;20086;-60
2022/03/01 05:36:30;;;;;;;12.55;4.43;;;;;;;-4.61;100.00;101110.81;5123666;28;20104;-60
2022/03/01 05:38:56;;;;;;;9.00;4.60;;;;;;;-4.59;100.00;101095.38;5109922;28;20116;-61
2022/03/01 05:41:24;;;;;;;6.95;3.92;;;;;;;-4.41;100.00;101089.25;5109509;28;20108;-60
2022/03/01 05:43:50;;;;;;;7.40;3.67;;;;;;;-4.21;100.00;101063.13;5112364;28;20506;-60
2022/03/01 05:46:17;;;;;;;7.15;4.07;;;;;;;-3.62;100.00;101066.22;5130197;27;20449;-60
2022/03/01 05:48:43;;;;;;;11.20;4.43;;;;;;;-2.30;100.00;101041.16;5129776;28;20154;-62
2022/03/01 05:51:09;;;;;;;8.88;4.35;;;;;;;-1.11;100.00;100879.16;5130025;28;20417;-64
2022/03/01 05:53:36;;;;;;;9.13;4.28;;;;;;;-0.20;100.00;100558.03;5125267;27;20134;-65
2022/03/01 05:56:02;;;;;;;7.57;3.55;;;;;;;0.57;100.00;100212.00;5123424;28;20069;-65
2022/03/01 05:58:28;;;;;;;13.65;4.90;;;;;;;1.34;100.00;100042.31;5133679;27;20491;-66
2022/03/01 06:00:55;;;;;;;7.75;4.32;;;;;;;1.98;100.00;99996.31;5133350;28;20055;-63
2022/03/01 06:03:22;;;;;;;9.50;3.78;;;;;;;2.51;100.00;100047.66;5133785;27;20051;-60
2022/03/01 06:05:48;;;;;;;7.15;4.72;;;;;;;2.95;100.00;100111.53;5114091;28;20048;-63
2022/03/01 06:08:14;;;;;;;6.38;3.97;;;;;;;3.37;100.00;100164.09;5113324;28;20067;-62
2022/03/01 06:10:40;;;;;;;9.55;4.47;;;;;;;3.55;100.00;100209.38;5112813;28;20051;-62
2022/03/01 06:13:07;;;;;;;10.38;4.75;;;;;;;3.93;100.00;100231.06;5112822;28;20054;-65
2022/03/01 06:15:33;;;;;;;9.52;5.00;;;;;;;4.19;100.00;100267.56;5129587;27;20540;-61
2022/03/01 06:17:59;;;;;;;7.72;4.85;;;;;;;4.49;100.00;100290.72;5133595;27;20043;-63
2022/03/01 06:20:27;;;;;;;10.10;4.82;;;;;;;4.75;100.00;100305.78;5133468;27;20054;-62
2022/03/01 06:22:53;;;;;;;9.98;4.72;;;;;;;5.33;100.00;100321.56;5133286;28;20529;-63
2022/03/01 06:25:20;;;;;;;6.20;4.00;;;;;;;5.71;100.00;100349.38;5117662;28;20461;-62
2022/03/01 06:27:46;;;;;;;11.55;5.18;;;;;;;5.85;100.00;100368.41;5118443;28;20051;-61
2022/03/01 06:30:12;;;;;;;11.93;4.97;;;;;;;6.09;100.00;100366.28;5131615;27;20082;-66
2022/03/01 06:32:39;;;;;;;11.45;4.95;;;;;;;6.22;100.00;100393.81;5121629;28;20043;-61
2022/03/01 06:35:06;;;;;;;9.95;4.85;;;;;;;6.35;100.00;100399.22;5130610;28;20066;-67
2022/03/01 06:37:33;;;;;;;19.90;5.70;;;;;;;6.35;100.00;100406.59;5112549;27;20952;-65
2022/03/01 06:39:59;;;;;;;9.07;5.50;;;;;;;6.48;100.00;100405.75;5112237;28;20154;-63
2022/03/01 06:42:27;;;;;;;9.48;5.80;;;;;;;6.59;100.00;100411.78;5112456;27;20048;-61
2022/03/01 06:44:53;;;;;;;10.10;5.18;;;;;;;6.86;100.00;100410.06;5124204;28;20082;-59
2022/03/01 06:47:19;;;;;;;9.88;5.38;;;;;;;6.79;100.00;100432.28;5126764;28;20043;-60
2022/03/01 06:49:46;;;;;;;10.63;5.40;;;;;;;6.99;100.00;100426.34;5124961;28;20054;-61
2022/03/01 06:52:12;;;;;;;10.55;5.68;;;;;;;7.20;100.00;100426.69;5112234;28;20517;-60
2022/03/01 06:54:39;;;;;;;14.52;5.95;;;;;;;7.61;100.00;100441.19;5111490;28;20077;-70
2022/03/01 06:57:05;;;;;;;14.45;5.93;;;;;;;7.59;100.00;100459.78;5112232;28;20048;-64
2022/03/01 06:59:31;;;;;;;10.63;5.15;;;;;;;7.89;100.00;100458.16;5128780;28;20103;-66
2022/03/01 07:01:58;;;;;;;11.13;5.25;;;;;;;8.13;100.00;100469.50;5125906;28;20550;-64
2022/03/01 07:04:24;;;;;;;12.80;5.72;;;;;;;8.12;100.00;100486.19;5111669;28;20047;-65
2022/03/01 07:06:50;;;;;;;7.80;5.10;;;;;;;8.52;100.00;100486.97;5112061;28;20074;-64
2022/03/01 07:09:16;;;;;;;10.88;5.53;;;;;;;8.54;100.00;100494.88;5112326;28;20054;-62
2022/03/01 07:11:43;;;;;;;14.30;6.13;;;;;;;8.53;100.00;100491.34;5115939;28;20427;-66
2022/03/01 07:14:10;;;;;;;11.23;5.22;;;;;;;8.82;100.00;100492.66;5132520;28;20051;-65
2022/03/01 07:16:36;;;;;;;16.15;6.20;;;;;;;9.16;100.00;100497.31;5132846;28;20130;-61
2022/03/01 07:19:02;;;;;;;16.48;5.88;;;;;;;9.24;100.00;100495.72;5132508;28;20047;-61
2022/03/01 07:21:29;;;;;;;12.73;5.25;;;;;;;9.22;99.48;100495.22;5130784;28;20573;-62
2022/03/01 07:23:55;;;;;;;15.15;5.47;;;;;;;9.40;97.73;100485.88;5111961;28;20418;-65
2022/03/01 07:26:21;;;;;;;17.15;5.90;;;;;;;9.56;96.94;100488.91;5111981;28;20100;-64
2022/03/01 07:28:48;;;;;;;15.75;5.32;;;;;;;9.19;97.22;100492.00;5111994;28;20111;-63
2022/03/01 07:31:14;;;;;;;15.73;5.18;;;;;;;8.99;98.68;100480.91;5111451;28;20056;-62
2022/03/01 07:33:41;;;;;;;13.38;5.78;;;;;;;8.60;100.00;100477.22;5112847;28;20582;-59
2022/03/01 07:36:08;;;;;;;20.60;5.55;;;;;;;8.76;100.00;100467.38;5111015;28;20105;-62
2022/03/01 07:38:34;;;;;;;11.30;4.80;;;;;;;9.10;100.00;100458.41;5111508;28;20051;-62
2022/03/01 07:41:00;;;;;;;15.60;5.50;;;;;;;9.31;100.00;100449.50;5111165;28;20525;-64
2022/03/01 07:43:26;;;;;;;15.70;5.20;;;;;;;9.54;98.49;100466.53;5129391;28;20047;-61
2022/03/01 07:45:53;;;;;;;17.33;5.00;;;;;;;9.32;97.38;100468.31;5131942;28;20054;-63
2022/03/01 07:48:20;;;;;;;16.10;4.35;;;;;;;9.48;97.91;100462.34;5132265;28;20129;-63
2022/03/01 07:50:46;;;;;;;9.45;4.20;;;;;;;9.51;98.52;100459.78;5131806;28;20129;-63
2022/03/01 07:53:12;;;;;;;17.90;5.50;;;;;;;9.31;99.46;100454.97;5115862;28;20108;-62
2022/03/01 07:55:38;;;;;;;18.20;4.90;;;;;;;9.62;98.00;100466.50;5110662;28;20601;-62
2022/03/01 07:58:04;;;;;;;12.32;4.50;;;;;;;9.55;95.96;100470.88;5111808;28;20048;-62
2022/03/01 08:00:31;;;;;;;16.42;4.68;;;;;;;9.77;96.20;100469.84;5128267;28;20053;-62
2022/03/01 08:02:58;;;;;;;8.57;3.75;;;;;;;8.92;97.82;100473.19;5131362;28;20108;-64
2022/03/01 08:05:24;;;;;;;9.05;4.10;;;;;;;8.91;97.63;100479.78;5131134;28;20055;-64
2022/03/01 08:07:51;;;;;;;11.70;4.25;;;;;;;9.46;97.11;100472.81;5131654;28;20057;-65
2022/03/01 08:10:18;;;;;;;9.38;4.28;;;;;;;9.64;97.57;100468.91;5119874;28;20051;-65
2022/03/01 08:12:44;;;;;;;8.70;3.78;;;;;;;9.55;95.92;100468.94;5131207;28;20509;-66
2022/03/01 08:15:10;;;;;;;7.13;4.18;;;;;;;9.07;97.65;100456.31;5130764;27;20066;-66
2022/03/01 08:17:37;;;;;;;7.40;4.28;;;;;;;8.33;99.56;100451.72;5131161;28;20047;-65
2022/03/01 08:20:06;;;;;;;13.85;4.15;;;;;;;8.22;100.00;100439.47;5122302;28;20043;-65
2022/03/01 08:22:33;;;;;;;12.63;4.20;;;;;;;8.47;100.00;100430.56;5130879;28;20505;-64
2022/03/01 08:24:59;;;;;;;9.32;4.40;;;;;;;8.44;100.00;100427.66;5130948;28;20058;-64
2022/03/01 08:27:25;;;;;;;6.38;3.80;;;;;;;8.81;100.00;100426.22;5131237;27;20057;-64
2022/03/01 08:29:52;;;;;;;11.85;4.93;;;;;;;9.08;97.86;100432.47;5130452;28;20159;-63
2022/03/01 08:32:19;;;;;;;10.77;4.35;;;;;;;9.25;98.45;100426.19;5130990;28;20494;-65
2022/03/01 08:34:45;;;;;;;8.27;4.25;;;;;;;9.63;99.32;100418.03;5130340;28;20059;-65
2022/03/01 08:37:12;;;;;;;9.88;4.50;;;;;;;9.89;97.24;100412.41;5110376;28;20461;-65
2022/03/01 08:39:38;;;;;;;10.10;4.18;;;;;;;10.17;96.77;100414.72;5110298;28;20426;-64
2022/03/01 08:42:04;;;;;;;15.75;4.68;;;;;;;10.29;93.78;100431.25;5110310;28;20051;-65
2022/03/01 08:44:31;;;;;;;14.02;5.03;;;;;;;10.63;95.35;100423.94;5110646;28;20399;-65
2022/03/01 08:46:57;;;;;;;22.67;4.78;;;;;;;10.46;91.94;100435.81;5128153;28;20047;-64
2022/03/01 08:49:23;;;;;;;17.17;5.32;;;;;;;10.16;94.80;100427.59;5131281;28;20083;-64
2022/03/01 08:51:49;;;;;;;27.80;8.57;;;;;;;10.17;95.89;100421.00;5130531;28;20054;-64
2022/03/01 08:54:17;;;;;;;16.75;5.32;;;;;;;10.22;97.05;100409.03;5130087;28;20459;-64
2022/03/01 08:56:43;;;;;;;19.75;5.38;;;;;;;10.38;95.94;100407.34;5130679;28;20051;-64
2022/03/01 08:59:10;;;;;;;18.35;5.63;;;;;;;10.30;94.54;100413.69;5130676;28;20051;-64
2022/03/01 09:01:37;;;;;;;10.35;5.47;;;;;;;10.24;95.73;100401.28;5121971;27;20422;-64
2022/03/01 09:04:04;;;;;;;13.30;5.35;;;;;;;10.23;94.49;100395.00;5116305;27;20073;-64
2022/03/01 09:06:30;;;;;;;16.65;5.32;;;;;;;10.40;95.54;100399.59;5116773;28;20531;-65
2022/03/01 09:08:56;;;;;;;8.65;5.25;;;;;;;10.53;94.62;100401.28;5130730;28;20049;-64
2022/03/01 09:11:23;;;;;;;10.40;4.70;;;;;;;10.35;93.05;100403.31;5130476;28;20050;-65
2022/03/01 09:13:50;;;;;;;10.18;4.43;;;;;;;9.82;93.12;100407.47;5130392;28;20494;-65
2022/03/01 09:16:16;;;;;;;34.15;6.18;;;;;;;9.86;95.97;100397.47;5130406;28;20130;-64
2022/03/01 09:18:43;;;;;;;12.30;5.03;;;;;;;10.18;94.68;100399.88;5122960;27;20047;-67
2022/03/01 09:21:10;;;;;;;9.05;4.28;;;;;;;9.93;93.71;100399.69;5126489;28;20043;-67
2022/03/01 09:23:36;;;;;;;9.45;4.43;;;;;;;9.82;95.01;100398.44;5129097;28;20134;-68
2022/03/01 09:26:03;;;;;;;10.30;4.50;;;;;;;9.73;94.54;100403.97;5128615;28;20051;-67
2022/03/01 09:28:30;;;;;;;10.60;4.25;;;;;;;9.49;94.62;100404.53;5128051;27;20103;-67
2022/03/01 09:30:56;;;;;;;10.63;5.18;;;;;;;9.64;96.90;100397.72;5128981;28;20051;-66
2022/03/01 09:33:22;;;;;;;12.10;4.25;;;;;;;9.90;96.95;100389.41;5126220;28;20107;-67
2022/03/01 09:35:49;;;;;;;13.02;4.22;;;;;;;9.85;96.62;100398.59;5123909;28;20055;-68
2022/03/01 09:38:15;;;;;;;9.07;4.70;;;;;;;10.19;93.98;100391.31;5122946;28;20188;-66
2022/03/01 09:40:41;;;;;;;12.25;5.32;;;;;;;10.25;91.62;100391.91;5123778;27;20066;-66
2022/03/01 09:43:08;;;;;;;15.15;5.07;;;;;;;9.87;93.67;100390.84;5126403;28;20169;-66
2022/03/01 09:45:35;;;;;;;12.65;4.53;;;;;;;9.49;96.95;100390.84;5123453;27;20189;-66
2022/03/01 09:48:01;;;;;;;9.43;4.80;;;;;;;9.24;96.44;100383.53;5113113;28;20047;-65
2022/03/01 09:50:30;;;;;;;10.32;4.60;;;;;;;9.48;98.04;100372.81;5130014;28;20052;-68
2022/03/01 09:52:58;;;;;;;15.15;5.10;;;;;;;9.28;100.00;100360.66;5130294;28;20130;-67
2022/03/01 09:55:25;;;;;;;7.15;4.78;;;;;;;8.67;99.48;100359.97;5127742;28;20047;-67
2022/03/01 09:57:51;;;;;;;12.05;4.20;;;;;;;8.50;100.00;100355.31;5130223;28;20076;-67
2022/03/01 10:00:18;;;;;;;9.00;4.47;;;;;;;8.46;100.00;100357.91;5129954;28;20520;-67
2022/03/01 10:02:46;;;;;;;13.85;4.40;;;;;;;8.82;100.00;100345.00;5129936;28;20138;-67
2022/03/01 10:05:13;;;;;;;10.00;4.03;;;;;;;9.09;100.00;100349.28;5121991;27;20051;-67
2022/03/01 10:07:43;;;;;;;10.82;4.80;;;;;;;9.40;100.00;100340.81;5118375;28;20055;-67
2022/03/01 10:10:16;;;;;;;11.15;4.13;;;;;;;9.33;100.00;100345.97;5111229;28;20062;-67
2022/03/01 10:12:43;;;;;;;11.00;4.30;;;;;;;9.07;99.02;100351.56;5123626;28;20121;-65
2022/03/01 10:15:13;;;;;;;10.98;4.65;;;;;;;8.85;100.00;100347.06;5127400;28;20051;-64
2022/03/01 10:17:41;;;;;;;8.73;4.22;;;;;;;8.81;100.00;100338.72;5128745;28;20051;-64
2022/03/01 10:20:10;;;;;;;6.80;3.15;;;;;;;8.64;100.00;100344.22;5117181;27;20508;-64
2022/03/01 10:22:43;;;;;;;7.20;3.72;;;;;;;8.59;96.89;100342.44;5118952;27;20466;-66
2022/03/01 10:25:10;;;;;;;6.45;3.13;;;;;;;8.52;99.32;100328.47;5114738;28;20051;-64
2022/03/01 10:27:36;;;;;;;10.00;3.40;;;;;;;8.52;100.00;100319.47;5120474;28;20048;-65
2022/03/01 10:30:04;;;;;;;20.98;3.65;;;;;;;8.64;100.00;100303.22;5115815;27;20051;-67
2022/03/01 10:32:31;;;;;;;7.57;3.28;;;;;;;8.19;100.00;100308.97;5126239;27;20044;-65
2022/03/01 10:35:02;;;;;;;7.43;2.95;;;;;;;7.97;100.00;100302.53;5113492;28;20150;-65
2022/03/01 10:37:31;;;;;;;5.45;3.28;;;;;;;7.36;100.00;100303.50;5116779;28;20555;-64
2022/03/01 10:40:20;;;;;;;4.15;2.65;;;;;;;7.45;100.00;100296.97;5131261;27;20047;-65
2022/03/01 10:42:57;;;;;;;3.90;2.80;;;;;;;7.27;100.00;100293.38;5127507;27;20051;-65
2022/03/01 10:45:31;;;;;;;10.88;3.00;;;;;;;7.10;100.00;100290.59;5114892;28;20154;-68
2022/03/01 10:47:57;;;;;;;4.88;2.88;;;;;;;7.10;100.00;100268.78;5111063;28;20051;-67
2022/03/01 10:50:23;;;;;;;6.72;2.40;;;;;;;7.06;100.00;100271.31;5117086;28;20325;-66
2022/03/01 10:52:50;;;;;;;5.60;2.33;;;;;;;7.12;100.00;100273.91;5132808;28;20090;-67
2022/03/01 10:55:25;;;;;;;7.32;2.47;;;;;;;7.17;100.00;100266.38;5132011;28;20065;-66
2022/03/01 10:58:01;;;;;;;;;;;;;;;7.35;100.00;100267.25;5129985;27;20478;-67
2022/03/01 11:00:28;;;;;;;5.20;2.47;;;;;;;7.61;100.00;100255.59;5112558;28;20038;-67
2022/03/01 11:02:55;;;;;;;6.07;3.28;;;;;;;7.51;100.00;100253.97;5125681;28;20150;-68
2022/03/01 11:05:22;;;;;;;6.30;2.80;;;;;;;7.63;100.00;100253.34;5130956;28;20103;-67
2022/03/01 11:07:52;;;;;;;4.90;2.78;;;;;;;7.31;100.00;100258.88;5119707;27;20062;-66
2022/03/01 11:10:20;;;;;;;6.75;2.78;;;;;;;7.29;100.00;100242.03;5119629;27;20104;-65
2022/03/01 11:12:47;;;;;;;7.22;2.67;;;;;;;7.32;100.00;100246.06;5132244;28;20050;-67
2022/03/01 11:15:23;;;;;;;7.22;2.70;;;;;;;7.79;100.00;100243.56;5131793;28;20065;-65
2022/03/01 11:17:57;;;;;;;6.10;2.83;;;;;;;7.79;100.00;100254.50;5132505;28;20079;-66
2022/03/01 11:20:30;;;;;;;22.45;3.00;;;;;;;7.79;100.00;100243.56;5132526;28;20097;-67